Time;durP1;ratioP1;P1;durP2;ratioP2;P2;SDS_P1;SDS_P2;PMS_P1;PMS_P2;Temp;Humidity;BMP_temperature;BMP_pressure;BME280_temperature;BME280_humidity;BME280_pressure;Samples;Min_cycle;Max_cycle;Signal;HPM_P1;HPM_P2
2023/05/06 00:02:45;;;;;;;9.52;4.03;;;;;;;15.00;52.44;99927.97;7726941;32;39362;-79
2023/05/06 00:07:02;;;;;;;7.30;4.10;;;;;;;14.90;52.76;99928.94;7738079;32;39878;-79
2023/05/06 00:11:18;;;;;;;6.55;4.00;;;;;;;14.67;53.86;99932.56;7730938;32;37970;-79
2023/05/06 00:15:35;;;;;;;7.65;4.15;;;;;;;14.75;53.87;99940.16;7711252;32;37130;-79
2023/05/06 00:19:51;;;;;;;7.00;3.90;;;;;;;14.81;53.56;99939.78;7728588;32;39566;-79
2023/05/06 00:24:08;;;;;;;7.87;4.40;;;;;;;14.55;54.61;99938.47;7735171;32;39931;-79
2023/05/06 00:28:24;;;;;;;5.75;3.92;;;;;;;14.51;54.67;99938.22;7710569;32;38612;-79
2023/05/06 00:32:40;;;;;;;6.15;3.87;;;;;;;14.75;53.66;99932.72;7711073;32;37927;-80
2023/05/06 00:36:56;;;;;;;6.57;3.87;;;;;;;14.52;54.48;99923.41;7728833;32;40518;-80
2023/05/06 00:41:13;;;;;;;5.90;4.05;;;;;;;14.47;54.62;99926.22;7737016;32;40569;-80
2023/05/06 00:45:29;;;;;;;7.15;4.10;;;;;;;14.33;55.11;99930.78;7736309;32;38567;-80
2023/05/06 00:49:49;;;;;;;7.00;4.40;;;;;;;14.31;55.29;99919.28;7735027;32;37929;-80
2023/05/06 00:54:06;;;;;;;6.37;4.10;;;;;;;14.42;54.87;99920.81;7735866;32;39375;-80
2023/05/06 00:58:22;;;;;;;7.32;4.57;;;;;;;14.49;54.84;99924.00;7710270;32;40267;-79
2023/05/06 01:02:39;;;;;;;8.07;4.35;;;;;;;14.54;54.81;99914.88;7710339;32;39240;-80
2023/05/06 01:07:12;;;;;;;7.12;4.25;;;;;;;14.65;54.54;99910.91;7729592;32;37816;-79
2023/05/06 01:11:53;;;;;;;6.05;4.10;;;;;;;14.84;53.99;99908.16;7737010;32;40174;-79
2023/05/06 01:16:11;;;;;;;8.63;4.53;;;;;;;14.80;54.27;99907.94;7722992;32;39899;-77
2023/05/06 01:20:29;;;;;;;7.90;4.47;;;;;;;14.59;54.89;99907.44;7709678;32;37935;-80
2023/05/06 01:24:46;;;;;;;8.00;4.70;;;;;;;14.27;55.90;99908.09;7731532;32;36095;-79
2023/05/06 01:29:02;;;;;;;7.22;4.20;;;;;;;14.63;57.53;99908.47;7736739;32;39447;-79
2023/05/06 01:33:40;;;;;;;6.30;4.15;;;;;;;14.42;55.89;99907.09;7717719;32;40791;-79
2023/05/06 01:38:20;;;;;;;9.65;4.20;;;;;;;14.55;55.19;99905.53;7708381;32;38337;-79
2023/05/06 01:42:38;;;;;;;8.27;3.97;;;;;;;14.42;55.37;99912.56;7729717;32;37892;-79
2023/05/06 01:46:55;;;;;;;7.40;4.32;;;;;;;14.24;55.72;99906.75;7735068;32;38327;-79
2023/05/06 01:51:11;;;;;;;8.65;4.47;;;;;;;14.08;56.17;99903.38;7724501;32;40813;-78
2023/05/06 01:55:28;;;;;;;7.60;4.87;;;;;;;14.09;56.09;99901.47;7739203;32;37862;-79
2023/05/06 01:59:44;;;;;;;7.28;4.53;;;;;;;14.04;56.14;99904.28;7738245;32;37260;-79
2023/05/06 02:04:01;;;;;;;12.52;5.07;;;;;;;14.40;55.09;99903.81;7738757;32;39402;-80
2023/05/06 02:08:17;;;;;;;9.27;5.30;;;;;;;14.32;55.61;99913.50;7739569;32;40039;-79
2023/05/06 02:12:33;;;;;;;9.43;5.72;;;;;;;14.04;56.73;99923.47;7718634;32;37901;-79
2023/05/06 02:16:50;;;;;;;8.73;5.07;;;;;;;13.94;57.47;99918.09;7712617;32;37820;-78
2023/05/06 02:21:09;;;;;;;7.53;4.57;;;;;;;13.95;57.22;99916.97;7733049;32;39443;-79
2023/05/06 02:25:25;;;;;;;11.27;5.28;;;;;;;13.85;57.52;99915.19;7739097;32;39995;-79
2023/05/06 02:29:41;;;;;;;7.87;4.60;;;;;;;13.73;57.78;99907.34;7715345;32;37969;-78
2023/05/06 02:33:58;;;;;;;7.62;4.60;;;;;;;13.75;57.78;99915.28;7712638;32;37060;-79
2023/05/06 02:38:14;;;;;;;7.87;4.40;;;;;;;13.74;57.70;99908.16;7736601;32;40059;-78
2023/05/06 02:42:30;;;;;;;10.95;4.75;;;;;;;13.59;58.30;99918.16;7965014;26;39983;-79
2023/05/06 02:46:47;;;;;;;7.05;4.75;;;;;;;13.70;57.68;99918.88;7708707;32;36103;-80
2023/05/06 02:51:04;;;;;;;9.43;4.65;;;;;;;13.53;57.98;99909.16;7698174;32;37102;-79
2023/05/06 02:55:20;;;;;;;7.55;4.68;;;;;;;13.72;57.28;99911.19;7711916;32;40163;-78
2023/05/06 02:59:37;;;;;;;8.75;4.37;;;;;;;13.68;57.64;99907.41;7712051;32;40572;-79
2023/05/06 03:03:53;;;;;;;7.45;4.72;;;;;;;14.08;56.21;99891.59;7712162;32;37907;-79
2023/05/06 03:08:10;;;;;;;6.18;4.47;;;;;;;13.94;56.55;99894.22;7711843;32;37753;-79
2023/05/06 03:12:26;;;;;;;9.15;5.05;;;;;;;13.58;58.05;99896.53;7698218;32;40022;-79
2023/05/06 03:16:42;;;;;;;8.10;5.05;;;;;;;13.69;57.90;99884.34;7711567;32;39963;-79
2023/05/06 03:21:00;;;;;;;11.73;5.78;;;;;;;13.63;58.61;99875.38;7696999;32;38608;-79
2023/05/06 03:25:16;;;;;;;7.50;4.70;;;;;;;13.62;58.94;99867.44;7686415;32;37342;-79
2023/05/06 03:29:32;;;;;;;11.40;5.35;;;;;;;13.68;58.54;99861.63;7711196;32;39583;-80
2023/05/06 03:33:49;;;;;;;11.05;5.45;;;;;;;13.62;58.53;99856.50;7711855;32;40637;-79
2023/05/06 03:38:05;;;;;;;7.95;5.30;;;;;;;13.57;59.07;99859.28;7711466;32;37623;-79
2023/05/06 03:42:22;;;;;;;10.07;5.87;;;;;;;13.66;59.30;99873.97;7711600;32;36984;-79
2023/05/06 03:46:40;;;;;;;11.25;5.15;;;;;;;13.79;58.61;99883.44;7697764;32;40037;-79
2023/05/06 03:50:57;;;;;;;10.45;5.03;;;;;;;13.43;60.57;99901.03;7711570;32;38759;-78
2023/05/06 03:55:13;;;;;;;10.93;5.55;;;;;;;13.53;60.23;99898.22;7697561;32;38396;-79
2023/05/06 03:59:29;;;;;;;7.65;4.55;;;;;;;13.74;59.62;99913.62;7711461;32;37266;-80
2023/05/06 04:03:46;;;;;;;8.70;5.03;;;;;;;14.02;58.61;99911.94;7711298;32;40002;-79
2023/05/06 04:08:03;;;;;;;9.02;5.72;;;;;;;13.79;59.33;99917.13;7711305;32;40946;-80
2023/05/06 04:12:19;;;;;;;9.10;5.03;;;;;;;13.96;59.00;99913.94;7710455;32;37542;-78
2023/05/06 04:16:35;;;;;;;10.52;5.75;;;;;;;14.17;58.49;99921.94;7693996;32;37071;-80
2023/05/06 04:20:52;;;;;;;9.82;5.07;;;;;;;14.08;58.82;99914.34;7698511;32;40004;-79
2023/05/06 04:25:09;;;;;;;11.85;5.07;;;;;;;14.23;59.09;99909.81;7710614;32;39759;-79
2023/05/06 04:29:26;;;;;;;12.27;5.47;;;;;;;14.27;58.71;99911.66;7711059;32;38618;-79
2023/05/06 04:33:42;;;;;;;9.50;5.47;;;;;;;13.93;60.39;99916.44;7710698;32;37246;-79
2023/05/06 04:37:59;;;;;;;8.50;5.40;;;;;;;14.02;60.33;99925.66;7710965;32;39005;-79
2023/05/06 04:42:16;;;;;;;11.55;5.85;;;;;;;13.73;61.73;99934.75;7710650;32;39868;-78
2023/05/06 04:46:32;;;;;;;10.13;6.18;;;;;;;14.00;60.89;99933.34;7710477;32;37940;-79
2023/05/06 04:50:49;;;;;;;9.05;5.30;;;;;;;14.04;61.00;99939.91;7710865;32;37676;-80
2023/05/06 04:55:06;;;;;;;9.77;6.07;;;;;;;14.22;60.68;99936.38;7710486;32;39520;-79
2023/05/06 04:59:23;;;;;;;9.45;5.68;;;;;;;14.44;60.41;99935.03;7709028;32;40540;-80
2023/05/06 05:03:39;;;;;;;9.13;5.55;;;;;;;14.45;60.88;99936.66;7709100;32;38038;-79
2023/05/06 05:07:56;;;;;;;11.35;5.37;;;;;;;14.27;61.87;99938.25;7710588;32;37176;-79
2023/05/06 05:12:12;;;;;;;8.80;5.53;;;;;;;14.17;61.02;99928.22;7709982;32;40364;-82
2023/05/06 05:16:29;;;;;;;8.95;5.90;;;;;;;14.44;60.14;99932.28;7710110;32;40206;-80
2023/05/06 05:20:45;;;;;;;12.73;5.90;;;;;;;14.54;59.95;99942.28;7709754;32;37669;-78
2023/05/06 05:25:01;;;;;;;11.30;5.72;;;;;;;14.62;59.93;99934.25;7711364;32;37157;-78
2023/05/06 05:29:19;;;;;;;13.55;6.15;;;;;;;14.77;60.44;99929.69;7713294;32;41633;-79
2023/05/06 05:33:36;;;;;;;11.27;5.65;;;;;;;15.01;60.00;99924.91;7712612;32;39886;-79
2023/05/06 05:37:53;;;;;;;11.77;5.35;;;;;;;14.86;60.63;99927.91;7712895;32;38017;-80
2023/05/06 05:42:09;;;;;;;10.15;5.70;;;;;;;15.14;60.08;99914.28;7712651;32;36793;-79
2023/05/06 05:46:25;;;;;;;8.73;5.12;;;;;;;15.39;59.66;99911.13;7713083;32;39383;-79
2023/05/06 05:50:42;;;;;;;11.90;6.00;;;;;;;15.50;59.22;99916.44;7712632;32;40057;-78
2023/05/06 05:54:58;;;;;;;9.52;5.57;;;;;;;15.52;59.74;99917.78;7712746;32;37852;-82
2023/05/06 05:59:14;;;;;;;10.13;5.50;;;;;;;15.86;60.25;99915.81;7698665;32;37941;-82
2023/05/06 06:03:31;;;;;;;10.68;5.22;;;;;;;16.28;58.58;99917.47;7710112;32;39162;-81
2023/05/06 06:07:47;;;;;;;9.10;5.12;;;;;;;16.57;57.58;99912.72;7697244;32;40870;-72
2023/05/06 06:12:04;;;;;;;14.07;4.97;;;;;;;16.84;58.34;99912.69;7712289;32;37875;-70
2023/05/06 06:16:20;;;;;;;10.25;5.53;;;;;;;17.21;57.37;99898.88;7711621;32;37462;-73
2023/05/06 06:20:37;;;;;;;10.43;5.95;;;;;;;17.53;56.24;99896.97;7710208;32;39828;-79
2023/05/06 06:24:53;;;;;;;10.02;5.43;;;;;;;17.39;55.33;99905.34;7708982;32;41329;-80
2023/05/06 06:29:09;;;;;;;10.50;5.82;;;;;;;17.29;54.71;99905.59;7708947;32;38733;-79
2023/05/06 06:33:26;;;;;;;9.60;5.37;;;;;;;17.68;53.16;99904.00;7709038;32;36667;-79
2023/05/06 06:37:42;;;;;;;10.48;5.40;;;;;;;17.99;52.81;99901.28;7711742;32;40292;-80
2023/05/06 06:41:59;;;;;;;10.65;5.22;;;;;;;18.17;52.62;99899.38;7711880;32;41273;-80
2023/05/06 06:46:15;;;;;;;11.68;5.28;;;;;;;18.51;51.63;99900.63;7698494;32;38466;-79
2023/05/06 06:50:32;;;;;;;10.43;5.60;;;;;;;18.82;51.18;99906.03;7712061;32;37057;-79
2023/05/06 06:54:48;;;;;;;12.15;5.82;;;;;;;18.87;49.84;99905.06;7698345;32;40076;-80
2023/05/06 06:59:06;;;;;;;9.23;5.35;;;;;;;19.18;48.78;99904.88;7698164;32;40002;-79
2023/05/06 07:03:22;;;;;;;9.43;5.00;;;;;;;19.63;48.52;99896.16;7698074;32;38765;-79
2023/05/06 07:07:39;;;;;;;8.75;4.82;;;;;;;19.82;48.41;99892.25;7711954;32;36776;-79
2023/05/06 07:11:57;;;;;;;11.65;4.82;;;;;;;19.45;48.43;99906.44;7697164;32;37638;-79
2023/05/06 07:16:13;;;;;;;11.55;5.35;;;;;;;19.70;48.35;99895.66;7685196;32;40108;-79
2023/05/06 07:20:30;;;;;;;8.85;4.70;;;;;;;19.87;47.80;99901.16;7684945;32;38620;-78
2023/05/06 07:24:46;;;;;;;9.25;5.37;;;;;;;20.28;47.53;99901.59;7685353;32;37168;-80
2023/05/06 07:29:03;;;;;;;8.73;4.97;;;;;;;20.52;46.67;99900.16;7707144;32;39904;-79
2023/05/06 07:33:19;;;;;;;6.68;4.55;;;;;;;20.75;47.15;99907.03;7708810;32;39994;-80
2023/05/06 07:37:36;;;;;;;8.88;5.07;;;;;;;20.66;46.62;99902.69;7692715;32;36369;-78
2023/05/06 07:41:52;;;;;;;7.05;4.43;;;;;;;21.15;46.35;99902.97;7684748;32;37083;-77
2023/05/06 07:46:08;;;;;;;8.75;4.90;;;;;;;21.01;45.74;99898.50;7684627;32;39314;-78
2023/05/06 07:50:25;;;;;;;7.18;4.60;;;;;;;21.23;45.00;99904.84;7670511;32;40779;-78
2023/05/06 07:54:41;;;;;;;9.73;4.68;;;;;;;21.27;45.43;99900.22;7684721;32;38463;-77
2023/05/06 07:58:58;;;;;;;8.23;4.87;;;;;;;21.41;46.19;99902.69;7684670;32;37856;-77
2023/05/06 08:03:15;;;;;;;8.30;4.10;;;;;;;21.49;45.48;99895.47;7684791;32;39315;-77
2023/05/06 08:09:11;;;;;;;8.73;5.05;;;;;;;22.07;45.49;99893.47;7831096;32;318102;-79
2023/05/06 08:13:34;;;;;;;8.57;4.82;;;;;;;21.90;44.13;99899.25;7810866;32;39840;-78
2023/05/06 08:17:51;;;;;;;6.82;4.07;;;;;;;22.08;43.29;99903.41;7793825;32;37622;-78
2023/05/06 08:22:07;;;;;;;9.80;5.07;;;;;;;22.45;43.04;99900.63;7785303;32;36979;-78
2023/05/06 08:26:24;;;;;;;9.70;4.85;;;;;;;22.18;43.30;99899.38;7785131;32;39948;-79
2023/05/06 08:30:40;;;;;;;11.15;4.40;;;;;;;22.63;42.34;99894.84;7785072;32;40689;-79
2023/05/06 08:34:58;;;;;;;8.88;4.57;;;;;;;23.04;42.79;99895.63;7784945;32;37927;-78
2023/05/06 08:39:14;;;;;;;10.68;4.50;;;;;;;23.24;42.08;99893.84;7784981;32;37631;-78
2023/05/06 08:43:32;;;;;;;7.18;4.40;;;;;;;23.65;41.59;99886.19;7784973;32;40661;-78
2023/05/06 08:47:48;;;;;;;8.07;4.32;;;;;;;23.49;39.22;99888.97;7771058;32;41734;-78
2023/05/06 08:52:05;;;;;;;8.45;5.07;;;;;;;23.78;40.02;99886.91;7784790;32;37518;-78
2023/05/06 08:56:27;;;;;;;8.27;4.82;;;;;;;23.94;40.75;99890.56;7784714;32;37012;-78
2023/05/06 09:00:45;;;;;;;6.97;4.50;;;;;;;24.27;38.42;99883.78;7773084;32;39247;-79
2023/05/06 09:05:01;;;;;;;8.10;4.55;;;;;;;24.50;37.61;99886.69;7791229;32;39904;-78
2023/05/06 09:09:18;;;;;;;14.85;5.22;;;;;;;24.55;39.72;99877.25;7784495;32;38826;-79
2023/05/06 09:13:34;;;;;;;7.10;4.35;;;;;;;25.21;38.69;99874.62;7784481;32;37789;-78
2023/05/06 09:17:55;;;;;;;8.25;4.82;;;;;;;25.31;37.36;99865.69;7778099;32;39994;-79
2023/05/06 09:22:11;;;;;;;10.13;5.15;;;;;;;25.69;37.18;99863.97;7766294;32;40743;-75
2023/05/06 09:26:29;;;;;;;23.38;5.40;;;;;;;25.60;36.16;99857.84;7766127;32;37992;-75
2023/05/06 09:30:46;;;;;;;9.32;4.37;;;;;;;25.88;35.91;99845.53;7766177;32;36061;-76
2023/05/06 09:35:04;;;;;;;7.05;3.78;;;;;;;25.62;35.32;99852.69;7766005;32;39161;-79
2023/05/06 09:39:26;;;;;;;6.68;4.35;;;;;;;25.73;36.05;99856.47;7765887;32;40715;-79
2023/05/06 09:43:43;;;;;;;7.37;4.07;;;;;;;25.53;34.59;99857.72;7752516;32;39194;-78
2023/05/06 09:48:00;;;;;;;4.68;3.40;;;;;;;25.43;34.33;99851.56;7751661;32;36963;-79
2023/05/06 09:52:18;;;;;;;5.28;3.03;;;;;;;25.94;34.55;99842.09;7754699;32;39958;-78
2023/05/06 09:56:35;;;;;;;6.28;3.00;;;;;;;26.20;32.28;99835.69;7766064;32;40752;-79
2023/05/06 10:00:51;;;;;;;4.60;2.95;;;;;;;26.40;31.33;99822.41;7752020;32;38528;-77
2023/05/06 10:05:11;;;;;;;5.85;2.95;;;;;;;26.24;29.46;99819.78;7779982;32;37715;-77
2023/05/06 10:09:28;;;;;;;4.07;2.55;;;;;;;25.90;31.04;99826.44;7779294;32;40506;-78
2023/05/06 10:13:45;;;;;;;4.50;3.33;;;;;;;25.83;29.65;99813.94;7792966;32;39753;-78
2023/05/06 10:18:03;;;;;;;4.97;2.83;;;;;;;25.49;29.62;99818.56;7765306;32;37979;-78
2023/05/06 10:22:42;;;;;;;5.55;3.15;;;;;;;25.67;32.13;99814.09;7765782;32;36575;-78
2023/05/06 10:27:02;;;;;;;4.00;2.70;;;;;;;25.77;29.51;99812.66;7765686;32;39914;-78
2023/05/06 10:31:18;;;;;;;4.18;3.08;;;;;;;25.34;30.74;99811.94;7751601;32;39169;-79
2023/05/06 10:35:41;;;;;;;4.00;2.65;;;;;;;24.96;30.62;99805.25;7751588;32;37962;-79
2023/05/06 10:39:58;;;;;;;5.93;3.10;;;;;;;25.31;30.50;99801.53;7765668;32;36581;-79
2023/05/06 10:44:15;;;;;;;6.25;3.33;;;;;;;25.29;30.59;99790.72;7765476;32;38994;-78
2023/05/06 10:48:31;;;;;;;8.65;3.05;;;;;;;25.61;30.44;99782.13;7765471;32;39993;-78
2023/05/06 10:52:51;;;;;;;15.90;3.95;;;;;;;25.17;30.65;99796.47;7765170;32;37985;-77
2023/05/06 10:57:09;;;;;;;5.00;3.17;;;;;;;25.04;33.01;99793.06;7765819;32;36669;-79
2023/05/06 11:01:28;;;;;;;6.25;3.00;;;;;;;24.61;31.55;99794.16;7768388;32;38073;-79
2023/05/06 11:05:50;;;;;;;4.60;3.33;;;;;;;24.73;33.90;99794.03;7782613;32;39994;-79
2023/05/06 11:10:09;;;;;;;8.00;3.20;;;;;;;24.78;35.10;99790.94;7779159;32;38035;-78
2023/05/06 11:14:36;;;;;;;8.40;3.65;;;;;;;24.87;35.50;99790.72;7771566;32;36908;-78
2023/05/06 11:18:53;;;;;;;10.25;3.17;;;;;;;24.60;35.43;99790.59;7781590;32;38682;-78
2023/05/06 11:23:09;;;;;;;4.37;3.30;;;;;;;24.76;36.17;99795.28;7755741;32;40889;-78
2023/05/06 11:27:26;;;;;;;5.55;3.70;;;;;;;24.78;35.71;99795.72;7779980;32;38880;-77
2023/05/06 11:31:44;;;;;;;5.70;3.40;;;;;;;24.66;35.77;99794.69;7754635;32;37184;-78
2023/05/06 11:36:01;;;;;;;6.35;3.30;;;;;;;24.68;36.51;99791.53;7778554;32;39986;-78
2023/05/06 11:40:19;;;;;;;5.03;3.20;;;;;;;24.58;38.52;99792.94;7787905;32;40674;-81
2023/05/06 11:44:38;;;;;;;9.52;3.33;;;;;;;24.61;38.42;99795.00;7769842;32;37689;-81
2023/05/06 11:48:54;;;;;;;10.77;3.37;;;;;;;24.64;37.79;99797.03;7767330;32;36915;-81
2023/05/06 11:53:18;;;;;;;4.95;3.15;;;;;;;24.53;37.43;99801.56;7774959;32;39990;-82
2023/05/06 11:57:43;;;;;;;11.27;3.85;;;;;;;24.52;36.46;99800.72;7785604;32;40898;-83
2023/05/06 12:02:05;;;;;;;5.90;3.70;;;;;;;24.41;37.80;99804.50;7764251;32;38837;-79
2023/05/06 12:06:34;;;;;;;7.85;4.03;;;;;;;23.80;40.16;99801.06;7776994;32;37593;-78
2023/05/06 12:10:51;;;;;;;14.30;4.93;;;;;;;23.73;40.61;99806.47;7750273;32;39228;-78
2023/05/06 12:15:09;;;;;;;9.20;4.20;;;;;;;23.50;41.80;99804.31;7755411;32;40107;-78
2023/05/06 12:19:27;;;;;;;8.80;3.97;;;;;;;23.48;40.56;99814.22;7778689;32;37869;-77
2023/05/06 12:23:58;;;;;;;8.65;4.07;;;;;;;23.34;40.73;99809.87;7790311;32;36967;-76
2023/05/06 12:28:19;;;;;;;11.43;4.45;;;;;;;23.40;41.52;99811.25;7790730;32;39751;-78
2023/05/06 12:32:55;;;;;;;6.65;4.20;;;;;;;23.32;42.28;99820.56;7790289;32;40051;-77
2023/05/06 12:37:23;;;;;;;9.27;5.07;;;;;;;23.14;42.00;99830.41;7778850;32;38027;-76
2023/05/06 12:41:41;;;;;;;9.80;5.03;;;;;;;22.74;42.42;99826.50;7790445;32;37585;-79
2023/05/06 12:46:05;;;;;;;13.45;5.37;;;;;;;22.44;42.50;99829.59;7790368;32;39351;-80
2023/05/06 12:50:38;;;;;;;6.95;4.80;;;;;;;22.03;44.12;99853.69;7790171;32;39929;-79
2023/05/06 12:54:56;;;;;;;10.73;5.12;;;;;;;21.47;46.19;99848.69;7792852;32;38502;-79
2023/05/06 12:59:12;;;;;;;8.45;5.47;;;;;;;21.01;48.04;99856.94;7793894;32;37678;-75
2023/05/06 13:03:28;;;;;;;8.25;5.53;;;;;;;20.59;49.93;99873.56;7793942;32;39335;-80
2023/05/06 13:07:45;;;;;;;12.88;6.40;;;;;;;20.44;52.31;99879.69;7793605;32;39692;-80
2023/05/06 13:12:03;;;;;;;11.73;6.37;;;;;;;19.80;54.94;99878.75;7793651;32;37886;-79
2023/05/06 13:16:19;;;;;;;13.27;6.18;;;;;;;19.38;57.03;99889.56;7793738;32;39156;-80
2023/05/06 13:20:36;;;;;;;11.48;7.20;;;;;;;19.03;58.98;99895.13;7779853;32;39944;-80
2023/05/06 13:24:52;;;;;;;12.43;6.68;;;;;;;18.96;60.51;99883.78;7785275;32;40789;-80
2023/05/06 13:29:09;;;;;;;12.85;7.78;;;;;;;19.26;59.60;99867.31;7785778;32;37996;-79
2023/05/06 13:33:26;;;;;;;12.98;7.82;;;;;;;19.04;60.97;99866.38;7777519;32;37020;-83
2023/05/06 13:37:42;;;;;;;12.68;8.13;;;;;;;19.23;61.11;99854.13;7780867;32;39058;-81
2023/05/06 13:41:58;;;;;;;11.02;7.62;;;;;;;18.58;62.67;99862.28;7766192;32;39995;-83
2023/05/06 13:46:15;;;;;;;12.98;8.30;;;;;;;18.94;61.70;99859.22;7763418;32;38700;-83
2023/05/06 13:50:31;;;;;;;12.75;8.45;;;;;;;18.95;60.45;99857.28;7766080;32;36917;-82
2023/05/06 13:54:48;;;;;;;13.32;7.68;;;;;;;18.90;60.72;99840.87;7774633;32;39493;-80
2023/05/06 13:59:06;;;;;;;11.88;7.40;;;;;;;19.03;60.95;99839.88;7786651;32;39966;-81
2023/05/06 14:03:25;;;;;;;13.18;7.62;;;;;;;19.12;62.62;99835.13;7792804;32;37990;-80
2023/05/06 14:07:44;;;;;;;10.43;7.00;;;;;;;19.28;63.29;99827.16;7792881;32;36436;-79
2023/05/06 14:12:02;;;;;;;10.25;6.12;;;;;;;19.47;62.48;99821.25;7792796;32;39223;-80
2023/05/06 14:16:19;;;;;;;10.55;6.62;;;;;;;19.66;60.22;99814.47;7792812;32;39678;-79
2023/05/06 14:20:35;;;;;;;11.90;6.75;;;;;;;19.87;57.02;99812.63;7792728;32;37896;-80
2023/05/06 14:24:52;;;;;;;9.85;6.50;;;;;;;20.35;57.78;99810.56;7778947;32;36941;-81
2023/05/06 14:29:08;;;;;;;10.85;6.90;;;;;;;20.61;58.16;99790.13;7782080;32;39186;-80
2023/05/06 14:33:24;;;;;;;8.95;6.32;;;;;;;20.95;57.47;99779.91;7765383;32;40790;-80
2023/05/06 14:37:40;;;;;;;8.60;4.70;;;;;;;21.45;56.59;99778.03;7766208;32;38755;-80
2023/05/06 14:41:57;;;;;;;8.07;5.25;;;;;;;22.09;50.07;99776.53;7764943;32;37000;-80
2023/05/06 14:46:14;;;;;;;10.05;5.90;;;;;;;22.59;52.70;99757.78;7765232;32;39962;-81
2023/05/06 14:50:31;;;;;;;8.93;5.53;;;;;;;23.05;54.15;99767.41;7765029;32;39614;-74
2023/05/06 14:54:48;;;;;;;9.07;5.10;;;;;;;23.24;48.29;99755.59;7764864;32;37834;-75
2023/05/06 14:59:04;;;;;;;8.27;5.00;;;;;;;23.65;46.45;99768.53;7765233;32;36902;-75
2023/05/06 15:03:21;;;;;;;9.40;4.97;;;;;;;23.40;47.68;99752.00;7764795;32;40336;-81
2023/05/06 15:07:37;;;;;;;14.57;5.10;;;;;;;23.34;47.86;99754.25;7771426;32;39673;-80
2023/05/06 15:11:53;;;;;;;8.60;5.28;;;;;;;22.95;46.92;99756.00;7791326;32;38447;-74
2023/05/06 15:16:10;;;;;;;9.13;5.32;;;;;;;23.06;47.01;99749.59;7774220;32;36719;-75
2023/05/06 15:20:26;;;;;;;10.70;4.75;;;;;;;23.51;45.81;99750.31;7781026;32;39398;-77
2023/05/06 15:24:43;;;;;;;6.62;4.45;;;;;;;23.54;46.25;99746.00;7764123;32;40855;-76
2023/05/06 15:28:59;;;;;;;8.80;4.68;;;;;;;23.86;46.17;99741.22;7766605;32;39499;-76
2023/05/06 15:33:15;;;;;;;7.37;4.72;;;;;;;23.58;49.60;99744.91;7775539;32;37031;-80
2023/05/06 15:37:33;;;;;;;7.43;4.53;;;;;;;23.32;50.89;99748.25;7763663;32;39253;-80
2023/05/06 15:41:49;;;;;;;8.25;5.45;;;;;;;23.13;51.24;99746.19;7766016;32;39720;-77
2023/05/06 15:46:06;;;;;;;9.43;5.07;;;;;;;23.31;51.67;99735.50;7775197;32;37591;-77
2023/05/06 15:50:23;;;;;;;9.45;4.95;;;;;;;23.53;50.64;99734.06;7772202;32;38138;-77
2023/05/06 15:54:48;;;;;;;7.47;4.78;;;;;;;24.04;47.59;99722.12;7778037;32;39428;-75
2023/05/06 15:59:06;;;;;;;7.03;4.55;;;;;;;24.51;47.62;99731.47;7778246;32;39705;-80
2023/05/06 16:03:23;;;;;;;6.57;4.65;;;;;;;24.28;44.37;99723.81;7771936;32;37590;-76
2023/05/06 16:07:40;;;;;;;7.70;4.78;;;;;;;23.75;46.66;99731.78;7763710;32;37065;-77
2023/05/06 16:11:56;;;;;;;7.70;5.15;;;;;;;23.48;48.11;99726.00;7764037;32;39935;-76
2023/05/06 16:16:12;;;;;;;8.15;5.07;;;;;;;23.34;48.62;99736.78;7764732;32;40022;-76
2023/05/06 16:20:30;;;;;;;9.13;5.30;;;;;;;23.23;48.64;99748.44;7763787;32;38460;-77
2023/05/06 16:24:47;;;;;;;8.85;4.90;;;;;;;22.80;49.80;99747.28;7763711;32;36710;-77
2023/05/06 16:29:03;;;;;;;8.40;5.53;;;;;;;22.53;50.06;99748.09;7765373;32;39861;-77
2023/05/06 16:33:19;;;;;;;9.55;6.00;;;;;;;22.44;49.73;99746.28;7766988;32;39969;-76
2023/05/06 16:37:36;;;;;;;8.98;5.18;;;;;;;22.40;50.77;99748.13;7766899;32;38776;-76
2023/05/06 16:41:52;;;;;;;8.30;5.55;;;;;;;22.15;52.36;99743.81;7766925;32;36953;-77
2023/05/06 16:46:08;;;;;;;9.82;5.18;;;;;;;22.15;50.91;99752.94;7774451;32;39219;-78
2023/05/06 16:50:24;;;;;;;11.05;5.40;;;;;;;21.98;50.71;99751.22;7793852;32;39930;-77
2023/05/06 16:54:41;;;;;;;11.15;5.72;;;;;;;21.83;51.32;99754.72;7793843;32;39226;-75
2023/05/06 16:58:57;;;;;;;13.73;7.45;;;;;;;21.96;51.42;99748.00;7779920;32;37473;-81
2023/05/06 17:03:14;;;;;;;21.77;16.85;;;;;;;21.69;52.63;99753.09;7777168;32;39254;-83
2023/05/06 17:07:31;;;;;;;56.17;34.33;;;;;;;21.68;52.42;99743.16;7783534;32;40723;-84
2023/05/06 17:11:48;;;;;;;45.88;31.67;;;;;;;21.59;52.01;99748.00;7774505;32;37912;-83
2023/05/06 17:16:05;;;;;;;22.33;15.88;;;;;;;21.45;51.09;99741.97;7766441;32;37958;-83
2023/05/06 17:20:21;;;;;;;10.02;6.20;;;;;;;21.41;51.69;99729.97;7766448;32;39024;-84
2023/05/06 17:24:38;;;;;;;9.10;6.00;;;;;;;21.19;54.52;99716.19;7789550;32;39936;-83
2023/05/06 17:28:54;;;;;;;10.20;6.43;;;;;;;20.99;55.54;99704.06;7793453;32;37972;-83
2023/05/06 17:33:10;;;;;;;10.43;6.68;;;;;;;20.82;56.12;99707.84;7793443;32;37082;-83
2023/05/06 17:37:27;;;;;;;9.27;6.18;;;;;;;20.74;56.44;99710.69;7788512;32;39935;-84
2023/05/06 17:41:43;;;;;;;11.50;6.47;;;;;;;20.74;56.54;99716.25;7773088;32;39646;-81
2023/05/06 17:46:00;;;;;;;9.45;6.12;;;;;;;20.73;56.34;99703.53;7766037;32;38748;-80
2023/05/06 17:50:16;;;;;;;8.38;5.75;;;;;;;20.67;56.32;99716.00;7780073;32;36930;-80
2023/05/06 17:54:33;;;;;;;11.82;6.07;;;;;;;20.56;56.78;99723.91;7766086;32;39377;-81
2023/05/06 17:58:50;;;;;;;8.88;6.45;;;;;;;20.41;57.88;99730.84;7766155;32;40908;-83
2023/05/06 18:03:06;;;;;;;10.90;6.78;;;;;;;20.25;58.24;99734.25;7785185;32;37980;-83
2023/05/06 18:07:23;;;;;;;14.30;7.62;;;;;;;20.41;57.40;99739.16;7791907;32;37576;-83
2023/05/06 18:11:40;;;;;;;13.23;7.53;;;;;;;20.19;58.35;99738.34;7792899;32;40143;-83
2023/05/06 18:16:00;;;;;;;11.93;6.95;;;;;;;20.23;58.35;99752.31;7782059;32;39934;-83
2023/05/06 18:20:17;;;;;;;13.77;8.10;;;;;;;20.18;58.72;99752.53;7792631;32;38790;-83
2023/05/06 18:24:42;;;;;;;16.45;8.02;;;;;;;20.10;58.79;99757.00;7791470;32;36927;-85
2023/05/06 18:29:07;;;;;;;14.07;8.80;;;;;;;19.96;59.75;99745.38;7763763;32;39076;-85
2023/05/06 18:33:23;;;;;;;12.23;7.43;;;;;;;20.06;59.48;99742.22;7772504;32;39624;-86
2023/05/06 18:37:39;;;;;;;12.37;6.07;;;;;;;19.97;59.86;99746.97;7765492;32;37953;-81
2023/05/06 18:41:56;;;;;;;15.88;6.95;;;;;;;19.88;60.21;99750.63;7775362;32;37040;-81
2023/05/06 18:46:12;;;;;;;13.65;6.30;;;;;;;19.72;60.84;99743.22;7786073;32;39191;-81
2023/05/06 18:50:29;;;;;;;10.05;6.10;;;;;;;19.50;61.85;99756.97;7764316;32;40032;-81
2023/05/06 18:54:45;;;;;;;11.95;6.78;;;;;;;19.56;61.54;99756.78;7765297;32;38380;-81
2023/05/06 18:59:01;;;;;;;8.90;6.50;;;;;;;19.64;61.11;99755.94;7771730;32;36948;-82
2023/05/06 19:03:17;;;;;;;10.88;7.30;;;;;;;19.55;61.31;99758.75;7774449;32;39309;-82
2023/05/06 19:07:34;;;;;;;13.75;7.60;;;;;;;19.59;61.21;99761.66;7771853;32;39635;-86
2023/05/06 19:11:50;;;;;;;31.83;17.90;;;;;;;19.44;61.64;99777.66;7773373;32;37974;-83
2023/05/06 19:16:07;;;;;;;20.55;12.37;;;;;;;19.36;62.25;99775.75;7776796;32;36987;-85
2023/05/06 19:20:25;;;;;;;19.83;10.80;;;;;;;19.26;62.47;99782.44;7775679;32;37975;-87
2023/05/06 19:24:41;;;;;;;18.17;11.38;;;;;;;19.30;62.15;99774.31;7775588;32;39922;-84
2023/05/06 19:28:59;;;;;;;19.55;13.13;;;;;;;19.34;61.88;99778.03;7777020;32;38138;-82
2023/05/06 19:33:18;;;;;;;18.67;10.70;;;;;;;19.31;61.83;99779.50;7779151;32;37795;-81
2023/05/06 19:37:35;;;;;;;13.77;8.63;;;;;;;19.22;62.27;99788.97;7791709;32;39227;-81
2023/05/06 19:41:53;;;;;;;10.88;7.10;;;;;;;19.23;62.00;99794.19;7791689;32;40868;-81
2023/05/06 19:46:10;;;;;;;12.68;7.00;;;;;;;19.10;62.06;99784.12;7777967;32;36905;-82
2023/05/06 19:50:27;;;;;;;11.40;7.10;;;;;;;19.07;61.64;99785.59;7791509;32;37097;-80
2023/05/06 19:54:43;;;;;;;19.17;7.80;;;;;;;19.00;61.68;99790.81;7791551;32;39479;-80
2023/05/06 19:59:00;;;;;;;12.10;7.90;;;;;;;18.99;61.64;99788.37;7785568;32;40232;-81
2023/05/06 20:03:16;;;;;;;12.50;7.45;;;;;;;18.87;61.89;99797.34;7763797;32;38680;-80
2023/05/06 20:07:33;;;;;;;9.68;6.68;;;;;;;18.90;61.67;99791.97;7763844;32;37839;-80